Time;durP1;ratioP1;P1;durP2;ratioP2;P2;SDS_P1;SDS_P2;PMS_P1;PMS_P2;Temp;Humidity;BMP_temperature;BMP_pressure;BME280_temperature;BME280_humidity;BME280_pressure;Samples;Min_cycle;Max_cycle;Signal;HPM_P1;HPM_P2
2020/12/23 00:00:07;;;;;;;17.70;15.00;;;;;;;20.50;51.49;100821.06;5077124;28;20618;-68
2020/12/23 00:02:33;;;;;;;18.23;14.53;;;;;;;20.51;51.37;100811.88;5077494;28;20239;-67
2020/12/23 00:04:59;;;;;;;22.53;15.67;;;;;;;20.50;51.32;100815.63;5060306;28;20171;-68
2020/12/23 00:07:25;;;;;;;19.57;14.80;;;;;;;20.48;51.40;100801.34;5076692;28;20296;-67
2020/12/23 00:09:51;;;;;;;19.77;15.67;;;;;;;20.42;51.46;100796.66;5093681;28;20183;-67
2020/12/23 00:12:17;;;;;;;18.70;14.83;;;;;;;20.43;51.34;100798.34;5093431;28;20608;-69
2020/12/23 00:14:43;;;;;;;17.53;14.43;;;;;;;20.40;51.63;100797.81;5093350;28;20197;-68
2020/12/23 00:17:10;;;;;;;18.47;15.00;;;;;;;20.37;51.43;100803.63;5094226;28;20183;-68
2020/12/23 00:19:36;;;;;;;19.70;14.73;;;;;;;20.35;51.28;100784.75;5094186;28;20178;-68
2020/12/23 00:22:02;;;;;;;16.70;14.13;;;;;;;20.30;51.63;100789.88;5094102;28;20175;-69
2020/12/23 00:24:28;;;;;;;18.90;14.80;;;;;;;20.30;51.45;100792.59;5076433;28;20634;-67
2020/12/23 00:26:54;;;;;;;16.57;14.43;;;;;;;20.29;51.50;100785.44;5093114;28;20178;-67
2020/12/23 00:29:21;;;;;;;18.67;14.33;;;;;;;20.29;51.38;100792.75;5092848;28;20227;-67
2020/12/23 00:31:50;;;;;;;17.03;13.97;;;;;;;20.23;51.64;100789.72;5091915;28;20211;-68
2020/12/23 00:34:16;;;;;;;16.60;13.80;;;;;;;20.23;51.57;100788.88;5076564;28;20190;-67
2020/12/23 00:36:42;;;;;;;16.57;13.93;;;;;;;20.17;51.57;100792.31;5093019;28;20201;-64
2020/12/23 00:39:08;;;;;;;16.80;13.80;;;;;;;20.15;51.77;100783.50;5092935;28;20213;-64
2020/12/23 00:41:34;;;;;;;16.67;13.20;;;;;;;20.14;51.76;100787.25;5076017;28;20413;-64
2020/12/23 00:44:00;;;;;;;16.67;13.80;;;;;;;20.15;51.61;100788.94;5092796;28;20179;-64
2020/12/23 00:46:26;;;;;;;16.07;13.43;;;;;;;20.12;51.57;100782.00;5076224;28;20228;-65
2020/12/23 00:48:52;;;;;;;16.73;13.80;;;;;;;20.11;51.64;100782.13;5093666;28;20235;-68
2020/12/23 00:51:18;;;;;;;17.33;13.23;;;;;;;20.08;51.61;100771.63;5092579;28;20288;-68
2020/12/23 00:53:44;;;;;;;15.67;13.30;;;;;;;20.07;51.58;100784.38;5093564;28;20274;-68
2020/12/23 00:56:11;;;;;;;16.23;13.30;;;;;;;20.06;51.58;100779.09;5093144;28;20178;-68
2020/12/23 00:58:37;;;;;;;15.73;12.80;;;;;;;20.02;51.58;100775.91;5075724;28;20247;-68
2020/12/23 01:01:03;;;;;;;15.40;12.87;;;;;;;20.01;51.84;100781.50;5093054;28;20209;-64
2020/12/23 01:03:29;;;;;;;14.43;12.07;;;;;;;19.99;52.06;100783.56;5057883;28;20187;-67
2020/12/23 01:05:55;;;;;;;15.23;12.90;;;;;;;19.96;51.80;100778.47;5091457;28;20627;-66
2020/12/23 01:08:21;;;;;;;18.13;12.57;;;;;;;19.97;51.74;100785.59;5092106;28;20276;-64
2020/12/23 01:10:48;;;;;;;15.10;12.63;;;;;;;19.97;51.63;100780.19;5092246;28;20199;-66
2020/12/23 01:13:14;;;;;;;16.87;12.87;;;;;;;19.92;51.97;100783.44;5092169;28;20196;-67
2020/12/23 01:15:40;;;;;;;14.23;12.57;;;;;;;19.89;51.74;100779.19;5092157;28;20353;-67
2020/12/23 01:18:07;;;;;;;15.70;12.43;;;;;;;19.85;52.17;100783.25;5092052;28;20203;-64
2020/12/23 01:20:33;;;;;;;14.47;11.87;;;;;;;19.88;51.72;100772.06;5057662;28;20176;-64
2020/12/23 01:22:59;;;;;;;14.77;12.10;;;;;;;19.84;51.59;100770.69;5074117;28;20179;-64
2020/12/23 01:25:25;;;;;;;14.30;12.00;;;;;;;19.86;51.66;100773.22;5091153;28;20623;-66
2020/12/23 01:27:51;;;;;;;13.60;12.20;;;;;;;19.85;51.73;100783.25;5091881;28;20278;-68
2020/12/23 01:30:17;;;;;;;14.50;12.10;;;;;;;19.83;51.66;100785.31;5091043;28;20208;-68
2020/12/23 01:32:43;;;;;;;14.60;12.13;;;;;;;19.82;51.77;100793.63;5091759;28;20289;-68
2020/12/23 01:35:10;;;;;;;13.77;11.40;;;;;;;19.80;51.93;100801.94;5091805;28;20179;-68
2020/12/23 01:37:36;;;;;;;13.47;12.07;;;;;;;19.75;51.94;100790.75;5073717;28;20202;-68
2020/12/23 01:40:03;;;;;;;14.07;11.77;;;;;;;19.75;51.95;100792.63;5091916;28;20175;-67
2020/12/23 01:42:35;;;;;;;14.43;11.97;;;;;;;19.76;51.88;100797.03;5091580;28;20185;-65
2020/12/23 01:45:01;;;;;;;13.53;11.90;;;;;;;19.73;51.65;100797.41;5057902;28;20179;-65
2020/12/23 01:47:28;;;;;;;12.00;10.70;;;;;;;19.70;51.81;100801.31;5091620;28;20202;-67
2020/12/23 01:49:55;;;;;;;13.83;11.73;;;;;;;19.70;52.04;100806.75;5073866;28;20194;-66
2020/12/23 01:52:21;;;;;;;13.83;11.40;;;;;;;19.70;51.71;100800.47;5073883;28;20674;-68
2020/12/23 01:54:47;;;;;;;13.00;11.37;;;;;;;19.65;52.13;100801.00;5057242;28;20591;-67
2020/12/23 01:57:13;;;;;;;12.90;11.33;;;;;;;19.68;51.98;100797.06;5091596;28;20211;-67
2020/12/23 01:59:43;;;;;;;13.27;11.53;;;;;;;19.44;51.90;100751.78;5073966;28;20223;-68
2020/12/23 02:02:28;;;;;;;12.17;10.80;;;;;;;19.66;51.70;100775.53;5090659;28;20182;-68
2020/12/23 02:04:55;;;;;;;13.70;11.13;;;;;;;19.65;51.66;100771.13;5091571;28;20182;-64
2020/12/23 02:07:22;;;;;;;12.87;10.90;;;;;;;19.61;52.13;100767.03;5090500;28;20193;-68
2020/12/23 02:09:48;;;;;;;12.00;10.40;;;;;;;19.61;51.82;100773.31;5091408;28;20777;-68
2020/12/23 02:12:15;;;;;;;12.30;10.80;;;;;;;19.60;52.17;100768.06;5073715;28;20215;-68
2020/12/23 02:14:41;;;;;;;11.93;10.70;;;;;;;19.59;51.93;100771.78;5073913;28;20191;-67
2020/12/23 02:17:08;;;;;;;13.80;11.20;;;;;;;19.58;51.97;100768.22;5090282;28;20209;-67
2020/12/23 02:19:34;;;;;;;12.60;10.63;;;;;;;19.57;51.83;100768.41;5091391;28;20633;-67
2020/12/23 02:22:00;;;;;;;12.77;10.87;;;;;;;19.53;52.00;100761.59;5091397;28;20217;-68
2020/12/23 02:24:27;;;;;;;12.27;10.27;;;;;;;19.51;51.79;100755.50;5073882;28;20197;-67
2020/12/23 02:26:53;;;;;;;11.53;10.33;;;;;;;19.50;51.87;100756.53;5057030;28;20243;-67
2020/12/23 02:29:19;;;;;;;11.67;10.27;;;;;;;19.47;52.06;100752.28;5073440;28;20211;-66
2020/12/23 02:31:45;;;;;;;12.30;9.87;;;;;;;19.47;52.05;100746.00;5073478;28;20250;-64
2020/12/23 02:34:11;;;;;;;12.10;10.07;;;;;;;19.47;51.79;100741.44;5090299;28;20242;-67
2020/12/23 02:36:37;;;;;;;11.00;9.90;;;;;;;19.45;51.99;100734.47;5085757;28;20272;-67
2020/12/23 02:39:03;;;;;;;11.10;9.90;;;;;;;19.46;51.90;100728.03;5091053;28;20207;-67
2020/12/23 02:41:29;;;;;;;11.67;9.93;;;;;;;19.45;51.85;100726.34;5090267;28;20183;-65
2020/12/23 02:43:55;;;;;;;10.70;9.60;;;;;;;19.44;51.98;100730.91;5090230;28;20189;-66
2020/12/23 02:46:21;;;;;;;11.20;9.67;;;;;;;19.42;52.15;100732.97;5090175;28;20190;-66
2020/12/23 02:48:47;;;;;;;11.63;10.43;;;;;;;19.39;52.10;100730.56;5090031;28;20202;-63
2020/12/23 02:51:13;;;;;;;11.23;9.70;;;;;;;19.39;52.04;100729.72;5090026;28;20222;-66
2020/12/23 02:53:39;;;;;;;10.80;9.57;;;;;;;19.38;52.15;100720.72;5091482;28;20600;-66
2020/12/23 02:56:06;;;;;;;11.00;9.50;;;;;;;19.33;52.09;100723.97;5093836;28;20194;-64
2020/12/23 02:58:32;;;;;;;10.93;9.83;;;;;;;19.35;51.92;100721.09;5076919;28;20203;-66
2020/12/23 03:00:58;;;;;;;10.27;9.20;;;;;;;19.32;52.23;100722.28;5093762;28;20315;-64
2020/12/23 03:03:24;;;;;;;10.37;9.00;;;;;;;19.32;52.10;100722.28;5076949;28;20187;-67
2020/12/23 03:05:50;;;;;;;10.93;9.77;;;;;;;19.32;52.18;100722.28;5076892;28;20183;-66
2020/12/23 03:08:16;;;;;;;11.17;9.97;;;;;;;19.32;51.98;100724.16;5076808;28;20267;-66
2020/12/23 03:10:42;;;;;;;10.40;9.30;;;;;;;19.29;51.98;100728.06;5094494;28;20179;-66
2020/12/23 03:13:08;;;;;;;10.73;9.63;;;;;;;19.27;52.18;100730.09;5093410;28;20537;-67
2020/12/23 03:15:34;;;;;;;9.87;8.87;;;;;;;19.26;52.00;100719.41;5093454;28;20187;-66
2020/12/23 03:18:00;;;;;;;11.57;9.37;;;;;;;19.24;52.37;100714.16;5076559;28;20206;-66
2020/12/23 03:20:26;;;;;;;10.30;8.67;;;;;;;19.25;52.06;100715.84;5094324;28;20689;-66
2020/12/23 03:22:52;;;;;;;10.37;9.27;;;;;;;19.24;51.99;100708.72;5076443;28;20194;-67
2020/12/23 03:25:18;;;;;;;11.23;9.27;;;;;;;19.22;52.14;100707.22;5076599;28;20194;-63
2020/12/23 03:27:44;;;;;;;10.53;9.07;;;;;;;19.23;52.02;100708.91;5094104;28;20232;-67
2020/12/23 03:30:10;;;;;;;9.73;8.73;;;;;;;19.25;51.76;100699.56;5093232;28;20186;-64
2020/12/23 03:32:36;;;;;;;11.90;9.40;;;;;;;19.22;51.99;100699.91;5093969;28;20685;-64
2020/12/23 03:35:03;;;;;;;10.00;8.97;;;;;;;19.22;52.18;100702.63;5076391;28;20179;-64
2020/12/23 03:37:29;;;;;;;10.17;9.13;;;;;;;19.19;52.16;100713.84;5076191;28;20229;-63
2020/12/23 03:39:55;;;;;;;9.77;8.77;;;;;;;19.16;52.01;100705.16;5094015;28;20240;-64
2020/12/23 03:42:21;;;;;;;9.60;8.60;;;;;;;19.17;52.19;100707.75;5093789;28;20187;-63
2020/12/23 03:44:47;;;;;;;9.90;8.83;;;;;;;19.15;52.43;100701.59;5076062;28;20187;-63
2020/12/23 03:47:13;;;;;;;9.37;8.10;;;;;;;19.15;51.90;100696.19;5076061;28;20682;-67
2020/12/23 03:49:39;;;;;;;10.67;8.77;;;;;;;19.15;51.99;100693.47;5093612;28;20263;-67
2020/12/23 03:52:05;;;;;;;9.37;8.27;;;;;;;19.13;52.15;100691.94;5059257;28;20666;-67
2020/12/23 03:54:31;;;;;;;9.63;8.63;;;;;;;19.09;52.28;100683.31;5093710;28;20206;-67
2020/12/23 03:56:57;;;;;;;8.73;7.93;;;;;;;19.10;52.22;100685.00;5092708;28;20282;-67
2020/12/23 03:59:23;;;;;;;9.83;8.33;;;;;;;19.11;51.88;100680.44;5059067;28;20211;-67
2020/12/23 04:01:49;;;;;;;9.23;8.33;;;;;;;19.07;52.19;100684.50;5093540;28;20879;-67
2020/12/23 04:04:15;;;;;;;10.07;8.40;;;;;;;19.05;52.09;100681.97;5093333;28;20261;-67
2020/12/23 04:06:41;;;;;;;8.77;7.90;;;;;;;19.05;52.28;100687.41;5092495;28;20197;-67
2020/12/23 04:09:07;;;;;;;9.90;8.33;;;;;;;19.04;52.10;100696.56;5092349;28;20275;-67
2020/12/23 04:11:33;;;;;;;9.40;8.40;;;;;;;19.02;52.04;100696.72;5092173;28;20248;-67
2020/12/23 04:14:01;;;;;;;9.67;8.23;;;;;;;19.04;52.22;100691.13;5075654;28;20662;-67
2020/12/23 04:16:27;;;;;;;9.07;8.17;;;;;;;19.02;52.25;100680.44;5093234;28;20206;-67
2020/12/23 04:18:53;;;;;;;9.87;8.07;;;;;;;19.03;52.23;100684.00;5075431;28;20203;-66
2020/12/23 04:21:19;;;;;;;9.00;8.10;;;;;;;19.01;52.38;100681.47;5093134;28;20296;-67
2020/12/23 04:23:45;;;;;;;8.60;7.80;;;;;;;19.01;52.18;100683.34;5093121;28;20623;-67
2020/12/23 04:26:11;;;;;;;8.87;7.80;;;;;;;19.01;52.10;100678.75;5058684;28;20212;-67
2020/12/23 04:28:37;;;;;;;8.07;7.30;;;;;;;19.01;52.00;100677.91;5091948;28;20203;-67
2020/12/23 04:31:03;;;;;;;8.43;7.53;;;;;;;18.97;52.57;100676.56;5092818;28;20206;-67
2020/12/23 04:33:29;;;;;;;9.50;8.10;;;;;;;18.98;52.00;100678.25;5092963;28;20187;-67
2020/12/23 04:35:55;;;;;;;8.63;7.73;;;;;;;18.94;52.32;100671.50;5092844;28;20186;-66
2020/12/23 04:38:21;;;;;;;8.57;7.77;;;;;;;18.95;51.93;100665.88;5091742;28;20298;-64
2020/12/23 04:40:47;;;;;;;8.10;7.30;;;;;;;18.95;52.03;100674.03;5093016;28;20187;-67
2020/12/23 04:43:14;;;;;;;9.07;8.10;;;;;;;18.94;52.21;100658.78;5093048;28;20191;-66
2020/12/23 04:45:40;;;;;;;8.37;7.57;;;;;;;18.96;51.96;100655.88;5092020;28;20217;-65
2020/12/23 04:48:06;;;;;;;8.30;7.50;;;;;;;18.93;51.98;100654.38;5091709;28;20210;-67
2020/12/23 04:50:33;;;;;;;8.17;7.30;;;;;;;18.89;52.25;100654.84;5074666;28;20226;-67
2020/12/23 04:52:59;;;;;;;7.97;7.00;;;;;;;18.89;52.20;100653.00;5074974;28;20179;-64
2020/12/23 04:55:25;;;;;;;8.83;7.20;;;;;;;18.89;52.42;100652.16;5091508;28;20205;-65
2020/12/23 04:57:56;;;;;;;7.90;7.10;;;;;;;18.88;52.28;100654.00;5092392;28;20195;-65
2020/12/23 05:00:22;;;;;;;7.50;6.80;;;;;;;18.89;52.21;100641.28;5074992;28;20175;-66
2020/12/23 05:02:48;;;;;;;9.00;7.40;;;;;;;18.88;52.25;100647.75;5091525;28;20639;-66
2020/12/23 05:05:14;;;;;;;8.33;7.40;;;;;;;18.85;51.90;100658.94;5092322;28;20668;-66
2020/12/23 05:07:41;;;;;;;7.47;6.77;;;;;;;18.84;52.04;100646.41;5091160;28;20226;-67
2020/12/23 05:10:07;;;;;;;7.97;7.17;;;;;;;18.82;52.05;100646.56;5091210;28;20336;-67
2020/12/23 05:12:33;;;;;;;8.00;7.20;;;;;;;18.82;52.33;100638.44;5091231;28;20203;-67
2020/12/23 05:15:05;;;;;;;8.03;7.13;;;;;;;18.83;52.12;100647.41;5092153;28;20560;-66
2020/12/23 05:17:31;;;;;;;7.87;7.07;;;;;;;18.81;52.47;100630.47;5091564;28;20211;-66
2020/12/23 05:19:58;;;;;;;7.20;6.50;;;;;;;18.81;52.15;100630.47;5092080;28;20204;-66
2020/12/23 05:22:25;;;;;;;8.10;7.30;;;;;;;18.79;52.41;100632.50;5092024;28;20667;-68
2020/12/23 05:24:55;;;;;;;7.23;6.53;;;;;;;18.76;52.15;100635.56;5091180;28;20198;-64
2020/12/23 05:27:24;;;;;;;7.30;6.60;;;;;;;18.78;52.22;100638.94;5090970;28;20183;-68
2020/12/23 05:29:50;;;;;;;7.07;6.37;;;;;;;18.77;52.08;100639.97;5074254;28;20350;-68
2020/12/23 05:32:16;;;;;;;7.13;6.43;;;;;;;18.78;52.35;100636.25;5090977;28;20199;-68
2020/12/23 05:34:43;;;;;;;7.47;6.77;;;;;;;18.78;52.45;100630.81;5091915;28;20505;-67
2020/12/23 05:37:09;;;;;;;7.30;6.60;;;;;;;18.77;51.94;100629.97;5091714;28;20179;-66
2020/12/23 05:39:35;;;;;;;7.57;6.77;;;;;;;18.74;52.31;100624.91;5091817;28;20236;-66
2020/12/23 05:42:01;;;;;;;6.77;6.17;;;;;;;18.73;51.97;100627.78;5090934;28;20175;-64
2020/12/23 05:44:27;;;;;;;7.17;6.47;;;;;;;18.75;52.31;100628.47;5074055;28;20187;-64
2020/12/23 05:46:54;;;;;;;6.50;5.90;;;;;;;18.74;52.32;100624.06;5092400;28;20187;-65
2020/12/23 05:49:22;;;;;;;7.50;6.50;;;;;;;18.75;52.01;100615.75;5092652;28;20226;-64
2020/12/23 05:51:49;;;;;;;6.30;5.70;;;;;;;18.70;52.34;100607.28;5091589;28;20229;-64
2020/12/23 05:54:17;;;;;;;7.23;6.50;;;;;;;18.72;52.34;100609.81;5075105;28;20308;-67
2020/12/23 05:56:43;;;;;;;6.73;6.03;;;;;;;18.70;52.06;100604.56;5075289;28;20186;-67
2020/12/23 05:59:09;;;;;;;7.30;6.60;;;;;;;18.68;52.29;100609.28;5092588;28;20237;-68
2020/12/23 06:01:39;;;;;;;6.53;5.93;;;;;;;18.66;52.48;100595.91;5091824;28;20206;-68
2020/12/23 06:04:12;;;;;;;6.67;6.07;;;;;;;18.65;52.22;100605.06;5075405;28;20185;-68
2020/12/23 06:06:38;;;;;;;6.93;6.23;;;;;;;18.66;52.47;100600.47;5091784;28;20183;-68
2020/12/23 06:09:07;;;;;;;6.50;5.90;;;;;;;18.64;52.33;100600.66;5091570;28;20651;-67
2020/12/23 06:11:37;;;;;;;6.30;5.70;;;;;;;18.64;52.05;100606.09;5074264;28;20218;-67
2020/12/23 06:14:06;;;;;;;6.67;5.97;;;;;;;18.66;52.19;100605.91;5074896;28;20202;-66
2020/12/23 06:16:42;;;;;;;6.47;5.87;;;;;;;18.66;52.00;100601.34;5092357;28;20520;-67
2020/12/23 06:19:10;;;;;;;6.40;5.80;;;;;;;18.61;52.34;100586.56;5091577;28;20591;-68
2020/12/23 06:21:37;;;;;;;6.70;6.10;;;;;;;18.61;52.55;100584.72;5091494;28;20175;-66
2020/12/23 06:24:11;;;;;;;6.50;5.90;;;;;;;18.63;52.37;100579.16;5091392;28;20185;-66
2020/12/23 06:26:38;;;;;;;6.40;5.80;;;;;;;18.63;52.05;100587.28;5074889;28;20181;-67
2020/12/23 06:29:05;;;;;;;6.30;5.70;;;;;;;18.61;52.06;100582.00;5077456;28;20198;-68
2020/12/23 06:31:40;;;;;;;6.20;5.60;;;;;;;18.62;52.03;100578.31;5077449;28;20246;-68
2020/12/23 06:34:06;;;;;;;6.43;5.83;;;;;;;18.59;52.35;100572.34;5094392;28;20517;-68
2020/12/23 06:36:33;;;;;;;6.23;5.63;;;;;;;18.62;52.31;100578.31;5095194;28;20194;-68
2020/12/23 06:39:18;;;;;;;6.20;5.60;;;;;;;18.60;52.01;100577.59;5095182;28;20213;-67
2020/12/23 06:41:52;;;;;;;6.33;5.73;;;;;;;18.56;52.62;100584.38;5095142;28;20183;-68
2020/12/23 06:44:18;;;;;;;6.43;5.83;;;;;;;18.58;52.53;100587.75;5105617;28;20563;-69
2020/12/23 06:46:59;;;;;;;5.93;5.43;;;;;;;18.60;52.89;100593.84;5112183;28;20186;-68
2020/12/23 06:49:39;;;;;;;5.77;5.17;;;;;;;18.61;52.90;100592.00;5112306;28;20251;-68
2020/12/23 06:52:24;;;;;;;6.00;5.30;;;;;;;18.65;53.06;100593.38;5111401;28;20910;-69
2020/12/23 06:55:02;;;;;;;6.00;5.40;;;;;;;18.65;53.12;100591.50;5111684;28;20668;-64
2020/12/23 06:57:37;;;;;;;6.10;5.50;;;;;;;18.66;52.81;100600.47;5111521;28;20619;-65
2020/12/23 07:00:03;;;;;;;5.67;5.17;;;;;;;18.67;53.10;100581.34;5111314;28;20200;-64
2020/12/23 07:02:32;;;;;;;5.80;5.20;;;;;;;18.70;52.99;100583.72;5112384;28;20166;-66
2020/12/23 07:04:59;;;;;;;5.73;5.13;;;;;;;18.67;53.06;100581.34;5112304;28;20197;-69
2020/12/23 07:07:33;;;;;;;5.63;5.13;;;;;;;18.69;53.06;100581.16;5094095;28;20221;-69
2020/12/23 07:10:16;;;;;;;5.40;4.90;;;;;;;18.74;52.95;100586.09;5111301;28;20550;-65
2020/12/23 07:12:46;;;;;;;5.20;4.70;;;;;;;18.73;53.00;100578.97;5111258;28;20202;-68
2020/12/23 07:15:12;;;;;;;5.57;5.07;;;;;;;18.74;52.73;100586.94;5112073;28;20210;-67
2020/12/23 07:17:40;;;;;;;5.40;5.00;;;;;;;18.74;53.12;100589.66;5111885;28;20233;-67
2020/12/23 07:20:06;;;;;;;5.30;4.90;;;;;;;18.75;52.99;100593.22;5111119;28;20190;-65
2020/12/23 07:22:33;;;;;;;5.47;4.97;;;;;;;18.77;52.79;100581.16;5110281;28;20721;-66
2020/12/23 07:24:59;;;;;;;5.87;5.20;;;;;;;18.76;52.92;100574.06;5106703;28;20182;-65
2020/12/23 07:27:25;;;;;;;5.43;4.93;;;;;;;18.78;53.17;100573.88;5091291;28;20210;-65
2020/12/23 07:30:07;;;;;;;5.03;4.63;;;;;;;18.76;53.02;100573.22;5074439;28;20856;-66
2020/12/23 07:32:33;;;;;;;5.43;4.93;;;;;;;18.79;52.72;100583.69;5092670;28;20351;-67
2020/12/23 07:35:00;;;;;;;5.37;4.87;;;;;;;18.80;52.48;100578.09;5093619;28;20192;-66
2020/12/23 07:37:40;;;;;;;5.80;5.20;;;;;;;18.82;52.60;100575.22;5092759;28;20213;-67
2020/12/23 07:40:15;;;;;;;4.97;4.57;;;;;;;18.81;52.68;100573.53;5093225;28;20189;-66
2020/12/23 07:42:51;;;;;;;5.30;4.50;;;;;;;18.81;52.65;100573.53;5092968;28;20187;-66
2020/12/23 07:45:17;;;;;;;5.07;4.57;;;;;;;18.80;52.60;100582.69;5076198;28;20672;-67
2020/12/23 07:47:53;;;;;;;4.93;4.53;;;;;;;18.79;52.53;100579.13;5092707;28;20202;-68
2020/12/23 07:50:19;;;;;;;5.23;4.73;;;;;;;18.79;52.45;100578.28;5075828;28;20271;-67
2020/12/23 07:52:45;;;;;;;6.13;4.83;;;;;;;18.78;52.50;100576.59;5092733;28;20247;-67
2020/12/23 07:55:15;;;;;;;5.17;4.67;;;;;;;18.76;52.50;100574.06;5075985;28;20608;-67
2020/12/23 07:57:41;;;;;;;5.30;4.80;;;;;;;18.75;52.49;100582.34;5093824;28;20871;-67
2020/12/23 08:00:10;;;;;;;4.80;4.40;;;;;;;18.75;52.62;100587.78;5092695;28;20241;-64
2020/12/23 08:02:36;;;;;;;4.80;4.40;;;;;;;18.73;52.29;100584.41;5075846;28;20226;-63
2020/12/23 08:05:03;;;;;;;5.10;4.60;;;;;;;18.70;52.49;100577.47;5094456;28;20183;-63
2020/12/23 08:07:29;;;;;;;5.07;4.57;;;;;;;18.69;52.50;100579.31;5094405;28;20829;-63
2020/12/23 08:09:55;;;;;;;4.87;4.47;;;;;;;18.66;52.51;100568.78;5094513;28;20183;-63
2020/12/23 08:12:21;;;;;;;4.77;4.37;;;;;;;18.64;52.51;100584.38;5094374;28;20246;-65
2020/12/23 08:14:48;;;;;;;4.63;4.23;;;;;;;18.68;53.06;100565.91;5094353;28;20171;-65
2020/12/23 08:17:23;;;;;;;4.83;4.30;;;;;;;18.74;52.80;100561.69;5076528;28;20228;-63
2020/12/23 08:20:03;;;;;;;4.73;4.33;;;;;;;18.84;52.79;100565.03;5060320;28;20189;-63
2020/12/23 08:22:29;;;;;;;4.90;4.50;;;;;;;18.92;52.81;100562.28;5093350;28;20282;-65
2020/12/23 08:25:09;;;;;;;4.30;3.90;;;;;;;19.04;52.97;100563.63;5094078;28;20210;-67
2020/12/23 08:27:36;;;;;;;4.50;4.10;;;;;;;19.14;52.74;100566.13;5093961;28;20194;-67
2020/12/23 08:30:04;;;;;;;4.60;4.20;;;;;;;19.25;52.94;100563.88;5076313;28;20277;-64
2020/12/23 08:32:55;;;;;;;4.10;3.70;;;;;;;19.36;52.79;100567.22;5091311;28;20215;-67
2020/12/23 08:35:24;;;;;;;4.30;3.90;;;;;;;19.48;52.54;100560.38;5092231;28;20234;-75
2020/12/23 08:37:50;;;;;;;3.87;3.57;;;;;;;19.58;52.66;100561.88;5076522;28;20207;-67
2020/12/23 08:40:16;;;;;;;3.73;3.43;;;;;;;19.69;52.71;100566.06;5093644;28;20218;-67
2020/12/23 08:43:18;;;;;;;4.30;3.90;;;;;;;19.82;52.35;100571.75;5092952;28;20186;-67
2020/12/23 08:45:44;;;;;;;4.20;3.80;;;;;;;19.93;52.47;100563.19;5089173;28;20202;-67
2020/12/23 08:48:10;;;;;;;4.07;3.70;;;;;;;20.02;52.46;100566.69;5092624;28;20282;-67
2020/12/23 08:50:36;;;;;;;4.17;3.77;;;;;;;20.11;52.17;100565.63;5092479;28;20202;-67
2020/12/23 08:53:02;;;;;;;4.03;3.73;;;;;;;20.22;52.33;100564.34;5091716;28;20669;-68
2020/12/23 08:55:29;;;;;;;4.50;4.20;;;;;;;20.31;52.07;100556.94;5093557;28;20249;-68
2020/12/23 08:58:08;;;;;;;3.87;3.53;;;;;;;20.41;52.14;100561.13;5092358;28;20207;-65
2020/12/23 09:00:34;;;;;;;4.40;4.00;;;;;;;20.50;51.92;100559.19;5059134;28;20680;-64
2020/12/23 09:03:00;;;;;;;3.90;3.60;;;;;;;20.59;52.06;100557.25;5059047;28;20607;-68
2020/12/23 09:05:36;;;;;;;4.10;3.80;;;;;;;20.66;52.17;100548.16;5092279;28;20213;-68
2020/12/23 09:08:09;;;;;;;4.33;3.97;;;;;;;20.76;51.84;100550.59;5092172;28;20210;-68
2020/12/23 09:10:36;;;;;;;4.57;4.00;;;;;;;20.83;52.01;100537.94;5092384;28;20183;-69
2020/12/23 09:13:12;;;;;;;4.63;4.23;;;;;;;20.90;52.06;100536.16;5092298;28;20218;-68
2020/12/23 09:15:41;;;;;;;4.57;4.20;;;;;;;20.96;51.88;100543.56;5092223;28;20193;-68
2020/12/23 09:18:12;;;;;;;5.33;4.60;;;;;;;21.04;51.77;100534.44;5075455;28;20212;-65
2020/12/23 09:20:39;;;;;;;4.90;4.47;;;;;;;21.11;51.94;100533.53;5092357;28;20653;-68
2020/12/23 09:23:06;;;;;;;4.53;4.23;;;;;;;21.19;51.51;100534.44;5075640;28;20202;-67
2020/12/23 09:25:32;;;;;;;5.03;4.63;;;;;;;21.25;51.51;100537.28;5092368;28;20274;-68
2020/12/23 09:28:09;;;;;;;5.23;4.73;;;;;;;21.32;51.77;100532.78;5075975;28;20198;-69
2020/12/23 09:30:44;;;;;;;5.43;4.93;;;;;;;21.40;51.62;100534.53;5076026;28;20181;-68
2020/12/23 09:33:11;;;;;;;5.77;5.27;;;;;;;;;;5093181;28;20342;-68
2020/12/23 09:35:38;;;;;;;5.60;5.20;;;;;;;21.52;51.31;100524.81;5092121;28;20576;-68
2020/12/23 09:38:06;;;;;;;5.97;5.47;;;;;;;21.59;51.73;100520.31;5091877;28;20317;-68
2020/12/23 09:40:32;;;;;;;5.63;5.23;;;;;;;21.66;51.62;100529.38;5091821;28;20189;-68
2020/12/23 09:42:58;;;;;;;6.40;5.90;;;;;;;21.70;51.49;100519.78;5074945;28;20548;-68
2020/12/23 09:45:24;;;;;;;6.43;5.73;;;;;;;21.75;51.34;100514.59;5058336;28;20195;-68
2020/12/23 09:47:50;;;;;;;6.63;6.07;;;;;;;21.82;51.19;100513.84;5092482;28;20756;-69
2020/12/23 09:50:16;;;;;;;6.37;5.90;;;;;;;21.87;51.41;100498.59;5092699;28;20191;-68
2020/12/23 09:52:42;;;;;;;6.57;5.97;;;;;;;21.92;51.23;100492.56;5092748;28;20300;-67
2020/12/23 09:55:08;;;;;;;6.83;6.23;;;;;;;21.96;51.25;100486.50;5074389;28;20649;-67
2020/12/23 09:57:35;;;;;;;7.20;6.60;;;;;;;22.02;51.39;100479.44;5074887;28;20199;-66
2020/12/23 10:00:03;;;;;;;6.57;6.07;;;;;;;22.08;51.31;100483.28;5091305;28;20187;-67
2020/12/23 10:02:29;;;;;;;6.87;6.30;;;;;;;22.11;51.28;100489.19;5073506;28;20178;-67
2020/12/23 10:04:55;;;;;;;7.90;7.20;;;;;;;22.17;51.22;100484.81;5089692;28;20240;-67
2020/12/23 10:07:21;;;;;;;7.70;7.10;;;;;;;22.21;51.13;100478.78;5089214;28;20266;-67
2020/12/23 10:09:47;;;;;;;7.33;6.80;;;;;;;22.26;51.24;100470.03;5090061;28;20183;-67
2020/12/23 10:12:14;;;;;;;7.73;7.13;;;;;;;22.30;51.08;100466.69;5089793;28;20729;-66
2020/12/23 10:14:40;;;;;;;7.73;7.13;;;;;;;22.34;51.00;100461.69;5090094;28;20607;-67
2020/12/23 10:17:06;;;;;;;7.73;7.13;;;;;;;22.39;51.18;100447.44;5073452;28;20193;-67
2020/12/23 10:19:32;;;;;;;7.83;7.20;;;;;;;22.42;51.00;100447.03;5091463;28;20187;-67
2020/12/23 10:21:58;;;;;;;7.77;7.10;;;;;;;22.48;50.95;100444.38;5092393;28;20670;-67
2020/12/23 10:24:24;;;;;;;7.37;6.77;;;;;;;22.51;50.80;100430.34;5092213;28;20198;-67
2020/12/23 10:26:51;;;;;;;7.67;7.17;;;;;;;22.55;50.66;100436.22;5088985;28;20226;-67
2020/12/23 10:29:17;;;;;;;7.50;7.00;;;;;;;22.58;50.67;100430.38;5092261;28;20362;-66
2020/12/23 10:31:44;;;;;;;7.60;7.00;;;;;;;22.62;50.64;100427.03;5092055;28;20219;-66
2020/12/23 10:34:10;;;;;;;7.60;7.00;;;;;;;22.66;50.74;100413.81;5074160;28;20194;-67
2020/12/23 10:36:36;;;;;;;7.97;7.30;;;;;;;22.69;50.63;100416.13;5091324;28;20284;-66
2020/12/23 10:39:03;;;;;;;8.10;7.50;;;;;;;22.72;50.54;100404.84;5091955;28;20207;-66
2020/12/23 10:41:29;;;;;;;8.00;7.33;;;;;;;22.76;50.55;100399.81;5091451;28;20269;-66
2020/12/23 10:43:55;;;;;;;8.40;7.80;;;;;;;22.79;50.64;100397.53;5091371;28;20515;-66
2020/12/23 10:46:21;;;;;;;7.93;7.33;;;;;;;22.82;50.54;100394.41;5092064;28;20223;-67
2020/12/23 10:48:47;;;;;;;7.97;7.37;;;;;;;22.85;50.42;100391.28;5091138;28;20217;-67
2020/12/23 10:51:13;;;;;;;7.93;7.43;;;;;;;22.87;50.39;100386.44;5091856;28;20305;-67
2020/12/23 10:53:39;;;;;;;8.27;7.67;;;;;;;22.89;50.63;100373.44;5087687;28;20532;-66
2020/12/23 10:56:08;;;;;;;7.87;7.30;;;;;;;22.95;50.30;100380.81;5085128;28;20195;-67
2020/12/23 10:58:35;;;;;;;7.37;6.87;;;;;;;22.97;50.71;100380.63;5090826;28;20207;-66
2020/12/23 11:01:07;;;;;;;7.77;7.17;;;;;;;23.00;50.53;100373.91;5091924;28;20284;-67
2020/12/23 11:03:36;;;;;;;7.40;6.87;;;;;;;23.04;50.37;100369.72;5091816;28;20224;-68
2020/12/23 11:06:02;;;;;;;7.17;6.67;;;;;;;23.06;50.12;100367.63;5090974;28;20195;-68
2020/12/23 11:08:28;;;;;;;7.40;6.90;;;;;;;23.10;50.44;100368.88;5090873;28;20210;-68
2020/12/23 11:10:54;;;;;;;7.00;6.50;;;;;;;23.11;50.23;100356.91;5074277;28;20187;-68
2020/12/23 11:13:20;;;;;;;6.77;6.27;;;;;;;23.13;50.24;100360.28;5089528;28;20190;-68
2020/12/23 11:15:46;;;;;;;6.67;6.23;;;;;;;23.17;50.31;100361.53;5092612;28;20187;-66
2020/12/23 11:18:12;;;;;;;6.53;6.10;;;;;;;23.19;50.41;100357.56;5094058;28;20682;-67
2020/12/23 11:20:39;;;;;;;6.13;5.67;;;;;;;23.22;50.31;100367.25;5093762;28;20298;-67
2020/12/23 11:23:05;;;;;;;6.27;5.80;;;;;;;23.24;50.24;100354.22;5094658;28;20198;-67